Kings Mills, Ohio
Current Conditions -  °F | °C
As of 12:53 PM on Monday 26 Jan 2015 (Local Time) from KHAO Reporting Station
Clear Clear  
Wind Chill: 13°   Ceiling: Unl
Heat Index: 24°   Visibility: 10mi
Dew Point: 16°   Wind: 12mph
Humidity: 71%   Direction: 310°NW
Pressure: 29.93"   Gusts: NA
Location:  39.36°N, 84.25°W
Report Text: KHAO 261753Z AUTO 31010KT 10SM CLR M04/M09 A2993 RMK AO2 SLP144 T10441089 11039 21072 58001
Loading
Personal Weather Stations






























Interactive Weather Map New forecast layout! Learn more

10-Day Weather Forecast

Advertisements
Track Severe Weather on mobile